sensor_id;sensor_type;location;lat;lon;timestamp;temperature;humidity
44047;DHT22;29713;-33.888;151.150;2022-12-11T00:00:22;26.10;99.90
44047;DHT22;29713;-33.888;151.150;2022-12-11T00:02:49;26.20;99.90
44047;DHT22;29713;-33.888;151.150;2022-12-11T00:05:16;26.30;99.90
44047;DHT22;29713;-33.888;151.150;2022-12-11T00:07:44;26.40;99.90
44047;DHT22;29713;-33.888;151.150;2022-12-11T00:10:11;26.60;99.90
44047;DHT22;29713;-33.888;151.150;2022-12-11T00:12:38;26.70;99.90
44047;DHT22;29713;-33.888;151.150;2022-12-11T00:15:06;26.60;99.90
44047;DHT22;29713;-33.888;151.150;2022-12-11T00:17:33;26.70;99.90
44047;DHT22;29713;-33.888;151.150;2022-12-11T00:20:01;26.80;99.90
44047;DHT22;29713;-33.888;151.150;2022-12-11T00:22:29;26.80;99.90
44047;DHT22;29713;-33.888;151.150;2022-12-11T00:24:57;26.90;99.90
44047;DHT22;29713;-33.888;151.150;2022-12-11T00:27:24;27.10;99.90
44047;DHT22;29713;-33.888;151.150;2022-12-11T00:29:51;27.20;99.90
44047;DHT22;29713;-33.888;151.150;2022-12-11T00:32:19;27.30;99.90
44047;DHT22;29713;-33.888;151.150;2022-12-11T00:34:46;27.40;99.90
44047;DHT22;29713;-33.888;151.150;2022-12-11T00:37:14;27.50;99.90
44047;DHT22;29713;-33.888;151.150;2022-12-11T00:39:41;27.60;99.90
44047;DHT22;29713;-33.888;151.150;2022-12-11T00:42:08;27.70;99.90
44047;DHT22;29713;-33.888;151.150;2022-12-11T00:44:36;27.80;99.90
44047;DHT22;29713;-33.888;151.150;2022-12-11T00:47:03;27.80;99.90
44047;DHT22;29713;-33.888;151.150;2022-12-11T00:49:31;27.80;99.90
44047;DHT22;29713;-33.888;151.150;2022-12-11T00:51:58;27.90;99.90
44047;DHT22;29713;-33.888;151.150;2022-12-11T00:54:25;28.10;99.90
44047;DHT22;29713;-33.888;151.150;2022-12-11T00:56:54;28.40;99.90
44047;DHT22;29713;-33.888;151.150;2022-12-11T00:59:22;28.70;99.90
44047;DHT22;29713;-33.888;151.150;2022-12-11T01:01:49;28.80;99.90
44047;DHT22;29713;-33.888;151.150;2022-12-11T01:04:16;28.80;99.90
44047;DHT22;29713;-33.888;151.150;2022-12-11T01:06:44;28.70;99.90
44047;DHT22;29713;-33.888;151.150;2022-12-11T01:09:11;28.70;99.90
44047;DHT22;29713;-33.888;151.150;2022-12-11T01:11:56;28.80;99.90
44047;DHT22;29713;-33.888;151.150;2022-12-11T01:14:25;29.10;99.90
44047;DHT22;29713;-33.888;151.150;2022-12-11T01:16:52;29.30;99.90
44047;DHT22;29713;-33.888;151.150;2022-12-11T01:19:19;29.50;99.90
44047;DHT22;29713;-33.888;151.150;2022-12-11T01:21:47;29.50;99.90
44047;DHT22;29713;-33.888;151.150;2022-12-11T01:24:15;29.60;99.90
44047;DHT22;29713;-33.888;151.150;2022-12-11T01:26:42;29.50;99.90
44047;DHT22;29713;-33.888;151.150;2022-12-11T01:29:10;29.60;99.90
44047;DHT22;29713;-33.888;151.150;2022-12-11T01:31:37;29.60;99.90
44047;DHT22;29713;-33.888;151.150;2022-12-11T01:34:04;29.60;99.90
44047;DHT22;29713;-33.888;151.150;2022-12-11T01:36:32;29.50;99.90
44047;DHT22;29713;-33.888;151.150;2022-12-11T01:39:00;29.40;99.90
44047;DHT22;29713;-33.888;151.150;2022-12-11T01:41:27;29.40;99.90
44047;DHT22;29713;-33.888;151.150;2022-12-11T01:44:07;29.40;99.90
44047;DHT22;29713;-33.888;151.150;2022-12-11T01:46:36;29.40;99.90
44047;DHT22;29713;-33.888;151.150;2022-12-11T01:49:08;29.40;99.90
44047;DHT22;29713;-33.888;151.150;2022-12-11T01:51:59;29.50;99.90
44047;DHT22;29713;-33.888;151.150;2022-12-11T01:54:28;29.60;99.90
44047;DHT22;29713;-33.888;151.150;2022-12-11T01:57:01;29.70;99.90
44047;DHT22;29713;-33.888;151.150;2022-12-11T01:59:31;30.00;99.90
44047;DHT22;29713;-33.888;151.150;2022-12-11T02:04:37;30.40;99.90
44047;DHT22;29713;-33.888;151.150;2022-12-11T02:07:05;30.50;99.90
44047;DHT22;29713;-33.888;151.150;2022-12-11T02:09:35;30.70;99.90
44047;DHT22;29713;-33.888;151.150;2022-12-11T02:15:06;30.80;99.90
44047;DHT22;29713;-33.888;151.150;2022-12-11T02:20:42;31.10;99.90
44047;DHT22;29713;-33.888;151.150;2022-12-11T02:23:26;31.10;99.90
44047;DHT22;29713;-33.888;151.150;2022-12-11T02:28:56;31.50;99.90
44047;DHT22;29713;-33.888;151.150;2022-12-11T02:31:35;31.90;99.90
44047;DHT22;29713;-33.888;151.150;2022-12-11T02:34:21;31.70;99.90
44047;DHT22;29713;-33.888;151.150;2022-12-11T02:36:53;31.80;99.90
44047;DHT22;29713;-33.888;151.150;2022-12-11T02:39:23;32.20;99.90
44047;DHT22;29713;-33.888;151.150;2022-12-11T02:41:52;32.50;99.90
44047;DHT22;29713;-33.888;151.150;2022-12-11T02:44:32;32.70;99.90
44047;DHT22;29713;-33.888;151.150;2022-12-11T02:47:02;32.80;99.90
44047;DHT22;29713;-33.888;151.150;2022-12-11T02:49:32;33.00;99.90
44047;DHT22;29713;-33.888;151.150;2022-12-11T02:52:02;32.80;99.90
44047;DHT22;29713;-33.888;151.150;2022-12-11T02:54:34;33.20;99.90
44047;DHT22;29713;-33.888;151.150;2022-12-11T02:57:12;33.20;99.90
44047;DHT22;29713;-33.888;151.150;2022-12-11T02:59:45;33.20;99.90
44047;DHT22;29713;-33.888;151.150;2022-12-11T03:02:13;33.00;99.90
44047;DHT22;29713;-33.888;151.150;2022-12-11T03:04:42;32.90;99.90
44047;DHT22;29713;-33.888;151.150;2022-12-11T03:07:20;33.00;99.90
44047;DHT22;29713;-33.888;151.150;2022-12-11T03:09:49;33.20;99.90
44047;DHT22;29713;-33.888;151.150;2022-12-11T03:12:19;33.20;99.90
44047;DHT22;29713;-33.888;151.150;2022-12-11T03:14:49;32.70;99.90
44047;DHT22;29713;-33.888;151.150;2022-12-11T03:17:22;32.80;99.90
44047;DHT22;29713;-33.888;151.150;2022-12-11T03:20:12;32.50;99.90
44047;DHT22;29713;-33.888;151.150;2022-12-11T03:28:18;32.50;99.90
44047;DHT22;29713;-33.888;151.150;2022-12-11T03:30:49;32.60;99.90
44047;DHT22;29713;-33.888;151.150;2022-12-11T03:33:32;32.90;99.90
44047;DHT22;29713;-33.888;151.150;2022-12-11T03:36:11;32.90;99.90
44047;DHT22;29713;-33.888;151.150;2022-12-11T03:38:45;32.60;99.90
44047;DHT22;29713;-33.888;151.150;2022-12-11T03:41:16;32.80;99.90
44047;DHT22;29713;-33.888;151.150;2022-12-11T03:43:45;32.80;99.90
44047;DHT22;29713;-33.888;151.150;2022-12-11T03:46:14;32.60;99.90
44047;DHT22;29713;-33.888;151.150;2022-12-11T03:48:44;32.40;99.90
44047;DHT22;29713;-33.888;151.150;2022-12-11T03:51:12;32.30;99.90
44047;DHT22;29713;-33.888;151.150;2022-12-11T03:53:41;32.10;99.90
44047;DHT22;29713;-33.888;151.150;2022-12-11T03:56:10;32.50;99.90
44047;DHT22;29713;-33.888;151.150;2022-12-11T03:58:40;32.70;99.90
44047;DHT22;29713;-33.888;151.150;2022-12-11T04:01:11;32.60;99.90
44047;DHT22;29713;-33.888;151.150;2022-12-11T04:03:38;32.80;99.90
44047;DHT22;29713;-33.888;151.150;2022-12-11T04:06:06;33.00;99.90
44047;DHT22;29713;-33.888;151.150;2022-12-11T04:08:33;33.10;99.90
44047;DHT22;29713;-33.888;151.150;2022-12-11T04:11:02;33.10;99.90
44047;DHT22;29713;-33.888;151.150;2022-12-11T04:13:48;33.00;99.90
44047;DHT22;29713;-33.888;151.150;2022-12-11T04:16:35;32.80;99.90
44047;DHT22;29713;-33.888;151.150;2022-12-11T04:19:03;32.90;99.90
44047;DHT22;29713;-33.888;151.150;2022-12-11T04:21:48;33.10;99.90
44047;DHT22;29713;-33.888;151.150;2022-12-11T04:24:34;33.10;99.90
44047;DHT22;29713;-33.888;151.150;2022-12-11T04:27:01;33.00;99.90
44047;DHT22;29713;-33.888;151.150;2022-12-11T04:29:29;33.00;99.90
44047;DHT22;29713;-33.888;151.150;2022-12-11T04:31:56;33.30;99.90
44047;DHT22;29713;-33.888;151.150;2022-12-11T04:34:24;33.40;99.90
44047;DHT22;29713;-33.888;151.150;2022-12-11T04:36:51;33.50;99.90
44047;DHT22;29713;-33.888;151.150;2022-12-11T04:39:18;33.50;99.90
44047;DHT22;29713;-33.888;151.150;2022-12-11T04:41:46;33.40;99.90
44047;DHT22;29713;-33.888;151.150;2022-12-11T04:44:13;33.20;99.90
44047;DHT22;29713;-33.888;151.150;2022-12-11T04:46:42;32.80;99.90
44047;DHT22;29713;-33.888;151.150;2022-12-11T04:49:10;32.70;99.90
44047;DHT22;29713;-33.888;151.150;2022-12-11T04:51:38;32.90;99.90
44047;DHT22;29713;-33.888;151.150;2022-12-11T04:54:05;32.80;99.90
44047;DHT22;29713;-33.888;151.150;2022-12-11T04:56:33;32.80;99.90
44047;DHT22;29713;-33.888;151.150;2022-12-11T04:59:01;32.70;99.90
44047;DHT22;29713;-33.888;151.150;2022-12-11T05:01:28;32.90;99.90
44047;DHT22;29713;-33.888;151.150;2022-12-11T05:03:57;32.80;99.90
44047;DHT22;29713;-33.888;151.150;2022-12-11T05:06:25;32.50;99.90
44047;DHT22;29713;-33.888;151.150;2022-12-11T05:08:52;32.40;99.90
44047;DHT22;29713;-33.888;151.150;2022-12-11T05:11:19;32.20;99.90
44047;DHT22;29713;-33.888;151.150;2022-12-11T05:13:47;32.20;99.90
44047;DHT22;29713;-33.888;151.150;2022-12-11T05:16:17;32.10;99.90
44047;DHT22;29713;-33.888;151.150;2022-12-11T05:18:45;32.10;99.90
44047;DHT22;29713;-33.888;151.150;2022-12-11T05:21:16;32.10;99.90
44047;DHT22;29713;-33.888;151.150;2022-12-11T05:23:44;32.20;99.90
44047;DHT22;29713;-33.888;151.150;2022-12-11T05:26:14;32.00;99.90
44047;DHT22;29713;-33.888;151.150;2022-12-11T05:28:43;31.80;99.90
44047;DHT22;29713;-33.888;151.150;2022-12-11T05:31:19;31.90;99.90
44047;DHT22;29713;-33.888;151.150;2022-12-11T05:33:48;32.10;99.90
44047;DHT22;29713;-33.888;151.150;2022-12-11T05:36:37;32.20;99.90
44047;DHT22;29713;-33.888;151.150;2022-12-11T05:39:04;32.40;99.90
44047;DHT22;29713;-33.888;151.150;2022-12-11T05:41:32;32.30;99.90
44047;DHT22;29713;-33.888;151.150;2022-12-11T05:44:00;31.90;99.90
44047;DHT22;29713;-33.888;151.150;2022-12-11T05:46:29;31.90;99.90
44047;DHT22;29713;-33.888;151.150;2022-12-11T05:48:59;31.60;99.90
44047;DHT22;29713;-33.888;151.150;2022-12-11T05:51:28;31.60;99.90
44047;DHT22;29713;-33.888;151.150;2022-12-11T05:53:56;31.70;99.90
44047;DHT22;29713;-33.888;151.150;2022-12-11T05:56:32;31.80;99.90
44047;DHT22;29713;-33.888;151.150;2022-12-11T05:59:00;31.60;99.90
44047;DHT22;29713;-33.888;151.150;2022-12-11T06:03:58;31.60;99.90
44047;DHT22;29713;-33.888;151.150;2022-12-11T06:06:26;31.80;99.90
44047;DHT22;29713;-33.888;151.150;2022-12-11T06:08:55;32.10;99.90
44047;DHT22;29713;-33.888;151.150;2022-12-11T06:11:24;32.00;99.90
44047;DHT22;29713;-33.888;151.150;2022-12-11T06:13:54;31.90;99.90
44047;DHT22;29713;-33.888;151.150;2022-12-11T06:16:21;31.70;99.90
44047;DHT22;29713;-33.888;151.150;2022-12-11T06:18:50;31.60;99.90
44047;DHT22;29713;-33.888;151.150;2022-12-11T06:23:46;31.20;99.90
44047;DHT22;29713;-33.888;151.150;2022-12-11T06:26:15;30.50;99.90
44047;DHT22;29713;-33.888;151.150;2022-12-11T06:28:44;30.00;99.90
44047;DHT22;29713;-33.888;151.150;2022-12-11T06:31:12;29.50;99.90
44047;DHT22;29713;-33.888;151.150;2022-12-11T06:33:40;29.20;99.90
44047;DHT22;29713;-33.888;151.150;2022-12-11T06:36:12;29.00;99.90
44047;DHT22;29713;-33.888;151.150;2022-12-11T06:38:40;28.70;99.90
44047;DHT22;29713;-33.888;151.150;2022-12-11T06:41:09;28.50;99.90
44047;DHT22;29713;-33.888;151.150;2022-12-11T06:43:39;28.30;99.90
44047;DHT22;29713;-33.888;151.150;2022-12-11T06:46:12;28.20;99.90
44047;DHT22;29713;-33.888;151.150;2022-12-11T06:48:40;28.10;99.90
44047;DHT22;29713;-33.888;151.150;2022-12-11T06:51:16;28.00;99.90
44047;DHT22;29713;-33.888;151.150;2022-12-11T06:53:44;27.90;99.90
44047;DHT22;29713;-33.888;151.150;2022-12-11T06:56:14;27.60;99.90
44047;DHT22;29713;-33.888;151.150;2022-12-11T06:58:42;27.40;99.90
44047;DHT22;29713;-33.888;151.150;2022-12-11T07:01:18;27.20;99.90
44047;DHT22;29713;-33.888;151.150;2022-12-11T07:03:47;27.00;99.90
44047;DHT22;29713;-33.888;151.150;2022-12-11T07:06:15;26.90;99.90
44047;DHT22;29713;-33.888;151.150;2022-12-11T07:08:44;26.80;99.90
44047;DHT22;29713;-33.888;151.150;2022-12-11T07:11:13;26.80;99.90
44047;DHT22;29713;-33.888;151.150;2022-12-11T07:13:41;26.70;99.90
44047;DHT22;29713;-33.888;151.150;2022-12-11T07:16:10;26.60;99.90
44047;DHT22;29713;-33.888;151.150;2022-12-11T07:18:44;26.50;99.90
44047;DHT22;29713;-33.888;151.150;2022-12-11T07:21:13;26.50;99.90
44047;DHT22;29713;-33.888;151.150;2022-12-11T07:23:40;26.40;99.90
44047;DHT22;29713;-33.888;151.150;2022-12-11T07:26:13;26.30;99.90
44047;DHT22;29713;-33.888;151.150;2022-12-11T07:28:41;26.30;99.90
44047;DHT22;29713;-33.888;151.150;2022-12-11T07:31:12;26.20;99.90
44047;DHT22;29713;-33.888;151.150;2022-12-11T07:33:40;26.20;99.90
44047;DHT22;29713;-33.888;151.150;2022-12-11T07:36:10;26.10;99.90
44047;DHT22;29713;-33.888;151.150;2022-12-11T07:38:38;26.00;99.90
44047;DHT22;29713;-33.888;151.150;2022-12-11T07:41:08;26.00;99.90
44047;DHT22;29713;-33.888;151.150;2022-12-11T07:43:37;25.90;99.90
44047;DHT22;29713;-33.888;151.150;2022-12-11T07:46:08;25.80;99.90
44047;DHT22;29713;-33.888;151.150;2022-12-11T07:48:37;25.80;99.90
44047;DHT22;29713;-33.888;151.150;2022-12-11T07:51:17;25.60;99.90
44047;DHT22;29713;-33.888;151.150;2022-12-11T07:53:49;25.60;99.90
44047;DHT22;29713;-33.888;151.150;2022-12-11T07:56:17;25.50;99.90
44047;DHT22;29713;-33.888;151.150;2022-12-11T07:58:45;25.40;99.90
44047;DHT22;29713;-33.888;151.150;2022-12-11T08:01:17;25.40;99.90
44047;DHT22;29713;-33.888;151.150;2022-12-11T08:03:45;25.30;99.90
44047;DHT22;29713;-33.888;151.150;2022-12-11T08:06:13;25.20;99.90
44047;DHT22;29713;-33.888;151.150;2022-12-11T08:08:41;25.20;99.90
44047;DHT22;29713;-33.888;151.150;2022-12-11T08:11:12;25.10;99.90
44047;DHT22;29713;-33.888;151.150;2022-12-11T08:13:41;25.10;99.90
44047;DHT22;29713;-33.888;151.150;2022-12-11T08:16:11;25.00;99.90
44047;DHT22;29713;-33.888;151.150;2022-12-11T08:18:40;24.90;99.90
44047;DHT22;29713;-33.888;151.150;2022-12-11T08:21:18;24.90;99.90
44047;DHT22;29713;-33.888;151.150;2022-12-11T08:23:46;24.80;99.90
44047;DHT22;29713;-33.888;151.150;2022-12-11T08:26:17;24.80;99.90
44047;DHT22;29713;-33.888;151.150;2022-12-11T08:28:47;24.70;99.90
44047;DHT22;29713;-33.888;151.150;2022-12-11T08:31:16;24.70;99.90
44047;DHT22;29713;-33.888;151.150;2022-12-11T08:33:44;24.70;99.90
44047;DHT22;29713;-33.888;151.150;2022-12-11T08:36:13;24.60;99.90
44047;DHT22;29713;-33.888;151.150;2022-12-11T08:38:41;24.60;99.90
44047;DHT22;29713;-33.888;151.150;2022-12-11T08:41:20;24.60;99.90
44047;DHT22;29713;-33.888;151.150;2022-12-11T08:43:47;24.50;99.90
44047;DHT22;29713;-33.888;151.150;2022-12-11T08:46:15;24.60;99.90
44047;DHT22;29713;-33.888;151.150;2022-12-11T08:48:42;24.60;99.90
44047;DHT22;29713;-33.888;151.150;2022-12-11T08:51:16;24.60;99.90
44047;DHT22;29713;-33.888;151.150;2022-12-11T08:53:44;24.50;99.90
44047;DHT22;29713;-33.888;151.150;2022-12-11T08:56:17;24.40;99.90
44047;DHT22;29713;-33.888;151.150;2022-12-11T08:58:46;24.40;99.90
44047;DHT22;29713;-33.888;151.150;2022-12-11T09:01:17;24.30;99.90
44047;DHT22;29713;-33.888;151.150;2022-12-11T09:03:44;24.30;99.90
44047;DHT22;29713;-33.888;151.150;2022-12-11T09:06:15;24.30;99.90
44047;DHT22;29713;-33.888;151.150;2022-12-11T09:08:44;24.20;99.90
44047;DHT22;29713;-33.888;151.150;2022-12-11T09:11:23;24.20;99.90
44047;DHT22;29713;-33.888;151.150;2022-12-11T09:13:51;24.30;99.90
44047;DHT22;29713;-33.888;151.150;2022-12-11T09:16:20;24.20;99.90
44047;DHT22;29713;-33.888;151.150;2022-12-11T09:18:50;24.20;99.90
44047;DHT22;29713;-33.888;151.150;2022-12-11T09:21:20;24.20;99.90
44047;DHT22;29713;-33.888;151.150;2022-12-11T09:23:48;24.10;99.90
44047;DHT22;29713;-33.888;151.150;2022-12-11T09:26:17;24.20;99.90
44047;DHT22;29713;-33.888;151.150;2022-12-11T09:28:45;24.20;99.90
44047;DHT22;29713;-33.888;151.150;2022-12-11T09:31:20;24.20;99.90
44047;DHT22;29713;-33.888;151.150;2022-12-11T09:33:49;24.20;99.90
44047;DHT22;29713;-33.888;151.150;2022-12-11T09:36:17;24.10;99.90
44047;DHT22;29713;-33.888;151.150;2022-12-11T09:38:45;24.10;99.90
44047;DHT22;29713;-33.888;151.150;2022-12-11T09:41:37;24.10;99.90
44047;DHT22;29713;-33.888;151.150;2022-12-11T09:44:15;24.10;99.90
44047;DHT22;29713;-33.888;151.150;2022-12-11T09:46:44;24.10;99.90
44047;DHT22;29713;-33.888;151.150;2022-12-11T09:49:31;24.10;99.90
44047;DHT22;29713;-33.888;151.150;2022-12-11T09:54:46;24.10;99.90
44047;DHT22;29713;-33.888;151.150;2022-12-11T10:03:12;24.10;99.90
44047;DHT22;29713;-33.888;151.150;2022-12-11T10:05:54;24.10;99.90
44047;DHT22;29713;-33.888;151.150;2022-12-11T10:11:18;24.10;99.90
44047;DHT22;29713;-33.888;151.150;2022-12-11T10:16:46;24.10;99.90
44047;DHT22;29713;-33.888;151.150;2022-12-11T10:19:21;24.10;99.90
44047;DHT22;29713;-33.888;151.150;2022-12-11T10:21:52;24.10;99.90
44047;DHT22;29713;-33.888;151.150;2022-12-11T10:27:19;24.10;99.90
44047;DHT22;29713;-33.888;151.150;2022-12-11T10:29:51;24.10;99.90
44047;DHT22;29713;-33.888;151.150;2022-12-11T10:32:47;24.20;99.90
44047;DHT22;29713;-33.888;151.150;2022-12-11T10:35:22;24.20;99.90
44047;DHT22;29713;-33.888;151.150;2022-12-11T10:38:14;24.10;99.90
44047;DHT22;29713;-33.888;151.150;2022-12-11T10:40:51;24.10;99.90
44047;DHT22;29713;-33.888;151.150;2022-12-11T10:43:19;24.10;99.90
44047;DHT22;29713;-33.888;151.150;2022-12-11T10:45:52;24.10;99.90
44047;DHT22;29713;-33.888;151.150;2022-12-11T10:48:20;24.10;99.90
44047;DHT22;29713;-33.888;151.150;2022-12-11T10:51:00;24.00;99.90
44047;DHT22;29713;-33.888;151.150;2022-12-11T10:53:28;24.00;99.90
44047;DHT22;29713;-33.888;151.150;2022-12-11T10:55:56;24.00;99.90
44047;DHT22;29713;-33.888;151.150;2022-12-11T10:58:27;24.00;99.90
44047;DHT22;29713;-33.888;151.150;2022-12-11T11:03:32;23.90;99.90
44047;DHT22;29713;-33.888;151.150;2022-12-11T11:06:14;23.90;99.90
44047;DHT22;29713;-33.888;151.150;2022-12-11T11:08:45;23.90;99.90
44047;DHT22;29713;-33.888;151.150;2022-12-11T11:11:25;23.90;99.90
44047;DHT22;29713;-33.888;151.150;2022-12-11T11:16:38;23.80;99.90
44047;DHT22;29713;-33.888;151.150;2022-12-11T11:19:06;23.80;99.90
44047;DHT22;29713;-33.888;151.150;2022-12-11T11:21:52;23.80;99.90
44047;DHT22;29713;-33.888;151.150;2022-12-11T11:27:10;23.70;99.90
44047;DHT22;29713;-33.888;151.150;2022-12-11T11:29:37;23.70;99.90
44047;DHT22;29713;-33.888;151.150;2022-12-11T11:32:38;23.80;99.90
44047;DHT22;29713;-33.888;151.150;2022-12-11T11:37:39;23.70;99.90
44047;DHT22;29713;-33.888;151.150;2022-12-11T11:45:52;23.70;99.90
44047;DHT22;29713;-33.888;151.150;2022-12-11T11:48:38;23.70;99.90
44047;DHT22;29713;-33.888;151.150;2022-12-11T11:51:15;23.70;99.90
44047;DHT22;29713;-33.888;151.150;2022-12-11T11:53:51;23.60;99.90
44047;DHT22;29713;-33.888;151.150;2022-12-11T11:56:36;23.60;99.90
44047;DHT22;29713;-33.888;151.150;2022-12-11T12:01:37;23.60;99.90
44047;DHT22;29713;-33.888;151.150;2022-12-11T12:04:06;23.60;99.90
44047;DHT22;29713;-33.888;151.150;2022-12-11T12:15:01;23.70;99.90
44047;DHT22;29713;-33.888;151.150;2022-12-11T12:17:55;23.70;99.90
44047;DHT22;29713;-33.888;151.150;2022-12-11T12:25:54;23.60;99.90
44047;DHT22;29713;-33.888;151.150;2022-12-11T12:39:30;23.70;99.90
44047;DHT22;29713;-33.888;151.150;2022-12-11T12:45:08;23.70;99.90
44047;DHT22;29713;-33.888;151.150;2022-12-11T12:47:45;23.70;99.90
44047;DHT22;29713;-33.888;151.150;2022-12-11T12:50:17;23.70;99.90
44047;DHT22;29713;-33.888;151.150;2022-12-11T12:52:46;23.60;99.90
44047;DHT22;29713;-33.888;151.150;2022-12-11T12:55:30;23.70;99.90
44047;DHT22;29713;-33.888;151.150;2022-12-11T12:58:00;23.60;99.90
44047;DHT22;29713;-33.888;151.150;2022-12-11T13:00:30;23.60;99.90
44047;DHT22;29713;-33.888;151.150;2022-12-11T13:03:20;23.60;99.90
44047;DHT22;29713;-33.888;151.150;2022-12-11T13:06:09;23.60;99.90
44047;DHT22;29713;-33.888;151.150;2022-12-11T13:11:11;23.60;99.90
44047;DHT22;29713;-33.888;151.150;2022-12-11T13:13:41;23.60;99.90
44047;DHT22;29713;-33.888;151.150;2022-12-11T13:16:25;23.60;99.90
44047;DHT22;29713;-33.888;151.150;2022-12-11T13:18:52;23.60;99.90
44047;DHT22;29713;-33.888;151.150;2022-12-11T13:21:34;23.60;99.90
44047;DHT22;29713;-33.888;151.150;2022-12-11T13:26:48;23.50;99.90
44047;DHT22;29713;-33.888;151.150;2022-12-11T13:29:38;23.50;99.90
44047;DHT22;29713;-33.888;151.150;2022-12-11T13:34:39;23.50;99.90
44047;DHT22;29713;-33.888;151.150;2022-12-11T13:37:31;23.50;99.90
44047;DHT22;29713;-33.888;151.150;2022-12-11T13:40:06;23.50;99.90
44047;DHT22;29713;-33.888;151.150;2022-12-11T13:42:39;23.60;99.90
44047;DHT22;29713;-33.888;151.150;2022-12-11T13:46:00;23.50;99.90
44047;DHT22;29713;-33.888;151.150;2022-12-11T13:50:55;23.60;99.90
44047;DHT22;29713;-33.888;151.150;2022-12-11T13:53:23;23.60;99.90
44047;DHT22;29713;-33.888;151.150;2022-12-11T13:56:01;23.60;99.90
44047;DHT22;29713;-33.888;151.150;2022-12-11T13:58:34;23.60;99.90
44047;DHT22;29713;-33.888;151.150;2022-12-11T14:01:08;23.60;99.90
44047;DHT22;29713;-33.888;151.150;2022-12-11T14:03:53;23.70;99.90
44047;DHT22;29713;-33.888;151.150;2022-12-11T14:06:21;23.70;99.90
44047;DHT22;29713;-33.888;151.150;2022-12-11T14:08:52;23.70;99.90
44047;DHT22;29713;-33.888;151.150;2022-12-11T14:11:28;23.70;99.90
44047;DHT22;29713;-33.888;151.150;2022-12-11T14:14:02;23.70;99.90
44047;DHT22;29713;-33.888;151.150;2022-12-11T14:16:30;23.70;99.90
44047;DHT22;29713;-33.888;151.150;2022-12-11T14:19:18;23.70;99.90
44047;DHT22;29713;-33.888;151.150;2022-12-11T14:21:58;23.70;99.90
44047;DHT22;29713;-33.888;151.150;2022-12-11T14:24:26;23.80;99.90
44047;DHT22;29713;-33.888;151.150;2022-12-11T14:26:55;23.80;99.90
44047;DHT22;29713;-33.888;151.150;2022-12-11T14:29:32;23.80;99.90
44047;DHT22;29713;-33.888;151.150;2022-12-11T14:32:05;23.80;99.90
44047;DHT22;29713;-33.888;151.150;2022-12-11T14:34:42;23.70;99.90
44047;DHT22;29713;-33.888;151.150;2022-12-11T14:37:13;23.70;99.90
44047;DHT22;29713;-33.888;151.150;2022-12-11T14:39:56;23.70;99.90
44047;DHT22;29713;-33.888;151.150;2022-12-11T14:42:30;23.70;99.90
44047;DHT22;29713;-33.888;151.150;2022-12-11T14:45:18;23.70;99.90
44047;DHT22;29713;-33.888;151.150;2022-12-11T14:47:46;23.60;99.90
44047;DHT22;29713;-33.888;151.150;2022-12-11T14:53:03;23.70;99.90
44047;DHT22;29713;-33.888;151.150;2022-12-11T14:55:34;23.70;99.90
44047;DHT22;29713;-33.888;151.150;2022-12-11T14:58:22;23.70;99.90
44047;DHT22;29713;-33.888;151.150;2022-12-11T15:01:00;23.70;99.90
44047;DHT22;29713;-33.888;151.150;2022-12-11T15:03:38;23.70;99.90
44047;DHT22;29713;-33.888;151.150;2022-12-11T15:06:41;23.70;99.90
44047;DHT22;29713;-33.888;151.150;2022-12-11T15:09:33;23.80;99.90
44047;DHT22;29713;-33.888;151.150;2022-12-11T15:12:15;23.90;99.90
44047;DHT22;29713;-33.888;151.150;2022-12-11T15:14:54;23.90;99.90
44047;DHT22;29713;-33.888;151.150;2022-12-11T15:17:24;24.00;99.90
44047;DHT22;29713;-33.888;151.150;2022-12-11T15:19:55;24.10;99.90
44047;DHT22;29713;-33.888;151.150;2022-12-11T15:22:27;24.20;99.90
44047;DHT22;29713;-33.888;151.150;2022-12-11T15:24:56;24.30;99.90
44047;DHT22;29713;-33.888;151.150;2022-12-11T15:27:31;24.40;99.90
44047;DHT22;29713;-33.888;151.150;2022-12-11T15:35:29;24.50;99.90
44047;DHT22;29713;-33.888;151.150;2022-12-11T15:37:57;24.60;99.90
44047;DHT22;29713;-33.888;151.150;2022-12-11T15:40:25;24.50;99.90
44047;DHT22;29713;-33.888;151.150;2022-12-11T15:42:53;24.60;99.90
44047;DHT22;29713;-33.888;151.150;2022-12-11T15:45:22;24.60;99.90
44047;DHT22;29713;-33.888;151.150;2022-12-11T15:47:50;24.60;99.90
44047;DHT22;29713;-33.888;151.150;2022-12-11T15:52:48;24.50;99.90
44047;DHT22;29713;-33.888;151.150;2022-12-11T15:55:16;24.50;99.90
44047;DHT22;29713;-33.888;151.150;2022-12-11T16:00:17;24.40;99.90
44047;DHT22;29713;-33.888;151.150;2022-12-11T16:02:45;24.40;99.90
44047;DHT22;29713;-33.888;151.150;2022-12-11T16:05:13;24.30;99.90
44047;DHT22;29713;-33.888;151.150;2022-12-11T16:07:40;24.30;99.90
44047;DHT22;29713;-33.888;151.150;2022-12-11T16:10:16;24.30;99.90
44047;DHT22;29713;-33.888;151.150;2022-12-11T16:12:44;24.30;99.90
44047;DHT22;29713;-33.888;151.150;2022-12-11T16:15:13;24.30;99.90
44047;DHT22;29713;-33.888;151.150;2022-12-11T16:17:41;24.30;99.90
44047;DHT22;29713;-33.888;151.150;2022-12-11T16:20:09;24.20;99.90
44047;DHT22;29713;-33.888;151.150;2022-12-11T16:22:38;24.20;99.90
44047;DHT22;29713;-33.888;151.150;2022-12-11T16:25:06;24.30;99.90
44047;DHT22;29713;-33.888;151.150;2022-12-11T16:27:33;24.20;99.90
44047;DHT22;29713;-33.888;151.150;2022-12-11T16:30:01;24.20;99.90
44047;DHT22;29713;-33.888;151.150;2022-12-11T16:32:28;24.10;99.90
44047;DHT22;29713;-33.888;151.150;2022-12-11T16:34:57;24.10;99.90
44047;DHT22;29713;-33.888;151.150;2022-12-11T16:37:27;24.10;99.90
44047;DHT22;29713;-33.888;151.150;2022-12-11T16:39:55;24.10;99.90
44047;DHT22;29713;-33.888;151.150;2022-12-11T16:42:22;24.10;99.90
44047;DHT22;29713;-33.888;151.150;2022-12-11T16:44:51;24.10;99.90
44047;DHT22;29713;-33.888;151.150;2022-12-11T16:47:18;24.10;99.90
44047;DHT22;29713;-33.888;151.150;2022-12-11T16:49:45;24.10;99.90
44047;DHT22;29713;-33.888;151.150;2022-12-11T16:52:13;24.10;99.90
44047;DHT22;29713;-33.888;151.150;2022-12-11T16:54:40;24.10;99.90
44047;DHT22;29713;-33.888;151.150;2022-12-11T16:57:07;24.10;99.90
44047;DHT22;29713;-33.888;151.150;2022-12-11T16:59:35;24.10;99.90
44047;DHT22;29713;-33.888;151.150;2022-12-11T17:02:02;24.10;99.90
44047;DHT22;29713;-33.888;151.150;2022-12-11T17:04:29;24.20;99.90